PWSweather.com
Personal Weather Stations
Station Observations
KVAGLENALL
West Henrico, Glen Allen, VA 23060-6503

West HenricoGlen Allen, VA 23060-6503

Lat: 37.6554, Lon: -77.5693

Elevation: 273

Station Type: Davis Vantage Pro II

www.glenallenweather.com

High Low Average
Temperature 35.1°F1.7°C 30.9°F-0.6°C 33.2°F0.7°C
Dew Point 33.8°F1.0°C 13.6°F-10.2°C 27.1°F-2.7°C
Winds 9.0 mph 14.5 kmh Calm Calm 2.0 mph S3.2 kmh S
Wind Gusts 11.1 mph17.9 kmh -- 4.0 mph6.4 kmh
Humidity 97% 44% 80%
Pressure 30.37 in1028.4 mb 29.75 in1007.5 mb -
Precipitation 0.00 in0.0 mm - -
Hour Temp Dew Point Humidity Winds Wind Gusts Pressure Precip Precip Rate Daily Precip Total
12:00 AM 33.2°F0.7°C 13.6°F-10.2°C 44% 4.0 mph S6.4 kmh S 8.1 mph13.0 kmh 30.37 in1028.4 mb 0.00 in0.0 mm 0.00 in0.0 mm 0.00 in0.0 mm
12:15 AM 33.1°F0.6°C 14.1°F-9.9°C 45% 2.0 mph S3.2 kmh S 3.0 mph4.8 kmh 30.37 in1028.4 mb 0.00 in0.0 mm 0.00 in0.0 mm 0.00 in0.0 mm
12:30 AM 32.9°F0.5°C 14.9°F-9.5°C 47% Calm Calm 2.0 mph3.2 kmh 30.37 in1028.4 mb 0.00 in0.0 mm 0.00 in0.0 mm 0.00 in0.0 mm
12:45 AM 32.9°F0.5°C 14.9°F-9.5°C 47% 6.0 mph S9.7 kmh S 6.1 mph9.8 kmh 30.37 in1028.4 mb 0.00 in0.0 mm 0.00 in0.0 mm 0.00 in0.0 mm
01:00 AM 32.8°F0.4°C 14.8°F-9.6°C 47% 1.0 mph SSW1.6 kmh SSW 4.0 mph6.4 kmh 30.36 in1028.1 mb 0.00 in0.0 mm 0.00 in0.0 mm 0.00 in0.0 mm
01:15 AM 32.8°F0.4°C 15.3°F-9.3°C 48% 4.0 mph S6.4 kmh S 7.1 mph11.4 kmh 30.36 in1028.1 mb 0.00 in0.0 mm 0.00 in0.0 mm 0.00 in0.0 mm
01:30 AM 32.6°F0.3°C 15.5°F-9.2°C 49% 7.0 mph S11.3 kmh S 11.1 mph17.9 kmh 30.35 in1027.8 mb 0.00 in0.0 mm 0.00 in0.0 mm 0.00 in0.0 mm
01:45 AM 32.5°F0.3°C 15.9°F-8.9°C 50% 6.0 mph S9.7 kmh S 7.1 mph11.4 kmh 30.35 in1027.8 mb 0.00 in0.0 mm 0.00 in0.0 mm 0.00 in0.0 mm
02:00 AM 32.2°F0.1°C 15.6°F-9.1°C 50% 7.0 mph S11.3 kmh S 8.1 mph13.0 kmh 30.35 in1027.8 mb 0.00 in0.0 mm 0.00 in0.0 mm 0.00 in0.0 mm
02:15 AM 31.9°F-0.1°C 16.3°F-8.7°C 52% 3.0 mph S4.8 kmh S 5.1 mph8.2 kmh 30.34 in1027.4 mb 0.00 in0.0 mm 0.00 in0.0 mm 0.00 in0.0 mm
02:30 AM 31.9°F-0.1°C 16.7°F-8.5°C 53% 6.0 mph S9.7 kmh S 6.1 mph9.8 kmh 30.33 in1027.1 mb 0.00 in0.0 mm 0.00 in0.0 mm 0.00 in0.0 mm
02:45 AM 31.5°F-0.3°C 16.7°F-8.5°C 54% 3.0 mph SSW4.8 kmh SSW 5.1 mph8.2 kmh 30.33 in1027.1 mb 0.00 in0.0 mm 0.00 in0.0 mm 0.00 in0.0 mm
03:00 AM 31.0°F-0.6°C 16.7°F-8.5°C 55% 3.0 mph S4.8 kmh S 4.0 mph6.4 kmh 30.32 in1026.8 mb 0.00 in0.0 mm 0.00 in0.0 mm 0.00 in0.0 mm
03:15 AM 31.0°F-0.6°C 17.5°F-8.1°C 57% 1.0 mph SSE1.6 kmh SSE 5.1 mph8.2 kmh 30.31 in1026.4 mb 0.00 in0.0 mm 0.00 in0.0 mm 0.00 in0.0 mm
03:30 AM 31.3°F-0.4°C 17.8°F-7.9°C 57% 3.0 mph SE4.8 kmh SE 4.0 mph6.4 kmh 30.30 in1026.1 mb 0.00 in0.0 mm 0.00 in0.0 mm 0.00 in0.0 mm
03:45 AM 31.1°F-0.5°C 18.0°F-7.8°C 58% 2.0 mph S3.2 kmh S 6.1 mph9.8 kmh 30.29 in1025.7 mb 0.00 in0.0 mm 0.00 in0.0 mm 0.00 in0.0 mm
04:00 AM 30.9°F-0.6°C 18.6°F-7.4°C 60% 3.0 mph SE4.8 kmh SE 4.0 mph6.4 kmh 30.27 in1025.1 mb 0.00 in0.0 mm 0.00 in0.0 mm 0.00 in0.0 mm
04:15 AM 31.0°F-0.6°C 19.1°F-7.2°C 61% 6.0 mph SSE9.7 kmh SSE 7.1 mph11.4 kmh 30.26 in1024.7 mb 0.00 in0.0 mm 0.00 in0.0 mm 0.00 in0.0 mm
04:30 AM 31.1°F-0.5°C 19.6°F-6.9°C 62% 4.0 mph SSE6.4 kmh SSE 5.1 mph8.2 kmh 30.26 in1024.7 mb 0.00 in0.0 mm 0.00 in0.0 mm 0.00 in0.0 mm
04:45 AM 31.1°F-0.5°C 19.6°F-6.9°C 62% 2.0 mph SSE3.2 kmh SSE 5.1 mph8.2 kmh 30.25 in1024.4 mb 0.00 in0.0 mm 0.00 in0.0 mm 0.00 in0.0 mm
05:00 AM 31.3°F-0.4°C 20.1°F-6.6°C 63% 2.0 mph S3.2 kmh S 5.1 mph8.2 kmh 30.25 in1024.4 mb 0.00 in0.0 mm 0.00 in0.0 mm 0.00 in0.0 mm
05:15 AM 31.0°F-0.6°C 20.2°F-6.6°C 64% 4.0 mph S6.4 kmh S 7.1 mph11.4 kmh 30.24 in1024.0 mb 0.00 in0.0 mm 0.00 in0.0 mm 0.00 in0.0 mm
05:30 AM 30.9°F-0.6°C 20.5°F-6.4°C 65% 1.0 mph S1.6 kmh S 2.0 mph3.2 kmh 30.24 in1024.0 mb 0.00 in0.0 mm 0.00 in0.0 mm 0.00 in0.0 mm
05:45 AM 31.0°F-0.6°C 20.9°F-6.2°C 66% 2.0 mph SE3.2 kmh SE 4.0 mph6.4 kmh 30.24 in1024.0 mb 0.00 in0.0 mm 0.00 in0.0 mm 0.00 in0.0 mm
06:00 AM 31.2°F-0.4°C 21.1°F-6.1°C 66% 1.0 mph SSE1.6 kmh SSE 4.0 mph6.4 kmh 30.24 in1024.0 mb 0.00 in0.0 mm 0.00 in0.0 mm 0.00 in0.0 mm
06:15 AM 31.2°F-0.4°C 21.1°F-6.1°C 66% 2.0 mph SSW3.2 kmh SSW 5.1 mph8.2 kmh 30.23 in1023.7 mb 0.00 in0.0 mm 0.00 in0.0 mm 0.00 in0.0 mm
06:30 AM 31.1°F-0.5°C 21.0°F-6.1°C 66% 1.0 mph SSE1.6 kmh SSE 4.0 mph6.4 kmh 30.22 in1023.4 mb 0.00 in0.0 mm 0.00 in0.0 mm 0.00 in0.0 mm
06:45 AM 31.5°F-0.3°C 21.4°F-5.9°C 66% 2.0 mph S3.2 kmh S 3.0 mph4.8 kmh 30.22 in1023.4 mb 0.00 in0.0 mm 0.00 in0.0 mm 0.00 in0.0 mm
07:00 AM 31.7°F-0.2°C 21.3°F-5.9°C 65% 2.0 mph SSW3.2 kmh SSW 2.0 mph3.2 kmh 30.21 in1023.0 mb 0.00 in0.0 mm 0.00 in0.0 mm 0.00 in0.0 mm
07:15 AM 31.9°F-0.1°C 21.8°F-5.7°C 66% Calm Calm 1.0 mph1.6 kmh 30.21 in1023.0 mb 0.00 in0.0 mm 0.00 in0.0 mm 0.00 in0.0 mm
07:30 AM 32.1°F0.1°C 21.6°F-5.8°C 65% Calm Calm -- 30.21 in1023.0 mb 0.00 in0.0 mm 0.00 in0.0 mm 0.00 in0.0 mm
07:45 AM 32.4°F0.2°C 22.6°F-5.2°C 67% Calm Calm -- 30.21 in1023.0 mb 0.00 in0.0 mm 0.00 in0.0 mm 0.00 in0.0 mm
08:00 AM 32.6°F0.3°C 22.1°F-5.5°C 65% 1.0 mph SSW1.6 kmh SSW 1.0 mph1.6 kmh 30.21 in1023.0 mb 0.00 in0.0 mm 0.00 in0.0 mm 0.00 in0.0 mm
08:15 AM 32.8°F0.4°C 22.3°F-5.4°C 65% Calm Calm -- 30.21 in1023.0 mb 0.00 in0.0 mm 0.00 in0.0 mm 0.00 in0.0 mm
08:30 AM 33.0°F0.6°C 22.5°F-5.3°C 65% Calm Calm 2.0 mph3.2 kmh 30.19 in1022.4 mb 0.00 in0.0 mm 0.00 in0.0 mm 0.00 in0.0 mm
08:45 AM 33.1°F0.6°C 23.7°F-4.6°C 68% Calm Calm -- 30.19 in1022.4 mb 0.00 in0.0 mm 0.00 in0.0 mm 0.00 in0.0 mm
09:00 AM 33.3°F0.7°C 23.9°F-4.5°C 68% Calm Calm 1.0 mph1.6 kmh 30.19 in1022.4 mb 0.00 in0.0 mm 0.00 in0.0 mm 0.00 in0.0 mm
09:15 AM 33.2°F0.7°C 25.8°F-3.4°C 74% Calm Calm -- 30.19 in1022.4 mb 0.01 in0.3 mm 0.04 in1.0 mm 0.01 in0.3 mm
09:30 AM 33.1°F0.6°C 27.0°F-2.8°C 78% Calm Calm 1.0 mph1.6 kmh 30.18 in1022.0 mb 0.02 in0.5 mm 0.04 in1.0 mm 0.02 in0.5 mm
09:45 AM 32.9°F0.5°C 27.4°F-2.6°C 80% Calm Calm 1.0 mph1.6 kmh 30.17 in1021.7 mb 0.03 in0.8 mm 0.04 in1.0 mm 0.03 in0.8 mm
10:00 AM 32.8°F0.4°C 27.3°F-2.6°C 80% 1.0 mph WNW1.6 kmh WNW 1.0 mph1.6 kmh 30.17 in1021.7 mb 0.04 in1.0 mm 0.01 in0.3 mm 0.04 in1.0 mm
10:15 AM 32.8°F0.4°C 27.6°F-2.4°C 81% Calm Calm -- 30.16 in1021.3 mb 0.04 in1.0 mm 0.00 in0.0 mm 0.04 in1.0 mm
10:30 AM 32.9°F0.5°C 28.3°F-2.1°C 83% Calm Calm 1.0 mph1.6 kmh 30.15 in1021.0 mb 0.03 in0.8 mm 0.00 in0.0 mm 0.04 in1.0 mm
10:45 AM 33.1°F0.6°C 29.1°F-1.6°C 85% 1.0 mph ESE1.6 kmh ESE 1.0 mph1.6 kmh 30.13 in1020.3 mb 0.04 in1.0 mm 0.04 in1.0 mm 0.05 in1.3 mm
11:00 AM 33.1°F0.6°C 29.3°F-1.5°C 86% 1.0 mph E1.6 kmh E 4.0 mph6.4 kmh 30.12 in1020.0 mb 0.02 in0.5 mm 0.00 in0.0 mm 0.05 in1.3 mm
11:15 AM 33.4°F0.8°C 30.2°F-1.0°C 88% 1.0 mph ESE1.6 kmh ESE 3.0 mph4.8 kmh 30.10 in1019.3 mb 0.03 in0.8 mm 0.04 in1.0 mm 0.06 in1.5 mm
11:30 AM 33.4°F0.8°C 30.5°F-0.8°C 89% 1.0 mph E1.6 kmh E 4.0 mph6.4 kmh 30.08 in1018.6 mb 0.03 in0.8 mm 0.00 in0.0 mm 0.06 in1.5 mm
11:45 AM 33.4°F0.8°C 30.8°F-0.7°C 90% Calm Calm 2.0 mph3.2 kmh 30.06 in1017.9 mb 0.03 in0.8 mm 0.00 in0.0 mm 0.06 in1.5 mm
12:00 PM 33.4°F0.8°C 31.0°F-0.6°C 91% 4.0 mph ESE6.4 kmh ESE 6.1 mph9.8 kmh 30.04 in1017.3 mb 0.03 in0.8 mm 0.00 in0.0 mm 0.06 in1.5 mm
12:15 PM 33.6°F0.9°C 31.5°F-0.3°C 92% 8.0 mph ESE12.9 kmh ESE 8.1 mph13.0 kmh 30.02 in1016.6 mb 0.04 in1.0 mm 0.04 in1.0 mm 0.07 in1.8 mm
12:30 PM 34.0°F1.1°C 31.9°F-0.1°C 92% 2.0 mph E3.2 kmh E 2.0 mph3.2 kmh 30.01 in1016.3 mb 0.02 in0.5 mm 0.00 in0.0 mm 0.07 in1.8 mm
12:45 PM 34.1°F1.2°C 32.0°F0.0°C 92% 3.0 mph NE4.8 kmh NE 3.0 mph4.8 kmh 29.98 in1015.2 mb 0.03 in0.8 mm 0.04 in1.0 mm 0.08 in2.0 mm
01:00 PM 34.2°F1.2°C 32.1°F0.1°C 92% 2.0 mph NE3.2 kmh NE 3.0 mph4.8 kmh 29.97 in1014.9 mb 0.03 in0.8 mm 0.00 in0.0 mm 0.08 in2.0 mm
01:15 PM 34.4°F1.3°C 32.6°F0.3°C 93% 1.0 mph NE1.6 kmh NE 3.0 mph4.8 kmh 29.95 in1014.2 mb 0.04 in1.0 mm 0.04 in1.0 mm 0.09 in2.3 mm
01:30 PM 34.4°F1.3°C 32.6°F0.3°C 93% 1.0 mph NE1.6 kmh NE 3.0 mph4.8 kmh 29.93 in1013.5 mb 0.04 in1.0 mm 0.00 in0.0 mm 0.09 in2.3 mm
01:45 PM 34.5°F1.4°C 32.9°F0.5°C 94% 1.0 mph ENE1.6 kmh ENE 4.0 mph6.4 kmh 29.91 in1012.9 mb 0.05 in1.3 mm 0.04 in1.0 mm 0.10 in2.5 mm
02:00 PM 34.7°F1.5°C 33.1°F0.6°C 94% Calm Calm 3.0 mph4.8 kmh 29.89 in1012.2 mb 0.04 in1.0 mm 0.00 in0.0 mm 0.10 in2.5 mm
02:15 PM 34.9°F1.6°C 33.3°F0.7°C 94% 1.0 mph N1.6 kmh N 3.0 mph4.8 kmh 29.88 in1011.9 mb 0.06 in1.5 mm 0.08 in2.0 mm 0.12 in3.0 mm
02:30 PM 34.8°F1.6°C 33.2°F0.7°C 94% 3.0 mph E4.8 kmh E 3.0 mph4.8 kmh 29.86 in1011.2 mb 0.06 in1.5 mm 0.00 in0.0 mm 0.12 in3.0 mm
02:45 PM 34.7°F1.5°C 33.1°F0.6°C 94% 2.0 mph ENE3.2 kmh ENE 4.0 mph6.4 kmh 29.84 in1010.5 mb 0.09 in2.3 mm 0.12 in3.0 mm 0.15 in3.8 mm
03:00 PM 35.0°F1.7°C 33.7°F0.9°C 95% 2.0 mph NE3.2 kmh NE 4.0 mph6.4 kmh 29.83 in1010.2 mb 0.11 in2.8 mm 0.03 in0.8 mm 0.17 in4.3 mm
03:15 PM 35.1°F1.7°C 33.8°F1.0°C 95% Calm Calm 4.0 mph6.4 kmh 29.82 in1009.8 mb 0.15 in3.8 mm 0.16 in4.1 mm 0.21 in5.3 mm
03:30 PM 35.0°F1.7°C 33.7°F0.9°C 95% 8.0 mph N12.9 kmh N 8.1 mph13.0 kmh 29.80 in1009.1 mb 0.16 in4.1 mm 0.04 in1.0 mm 0.22 in5.6 mm
03:45 PM 34.7°F1.5°C 33.4°F0.8°C 95% 9.0 mph NE14.5 kmh NE 11.1 mph17.9 kmh 29.76 in1007.8 mb 0.21 in5.3 mm 0.20 in5.1 mm 0.27 in6.9 mm
04:00 PM 34.5°F1.4°C 33.2°F0.7°C 95% 6.0 mph N9.7 kmh N 8.1 mph13.0 kmh 29.75 in1007.5 mb 0.18 in4.6 mm 0.00 in0.0 mm 0.27 in6.9 mm
04:15 PM 34.4°F1.3°C 33.1°F0.6°C 95% 4.0 mph NW6.4 kmh NW 5.1 mph8.2 kmh 29.77 in1008.1 mb 0.25 in6.4 mm 0.28 in7.1 mm 0.34 in8.6 mm
04:30 PM 34.2°F1.2°C 32.9°F0.5°C 95% 3.0 mph N4.8 kmh N 6.1 mph9.8 kmh 29.80 in1009.1 mb 0.26 in6.6 mm 0.04 in1.0 mm 0.35 in8.9 mm
04:45 PM 34.0°F1.1°C 33.0°F0.6°C 96% 3.0 mph NW4.8 kmh NW 4.0 mph6.4 kmh 29.80 in1009.1 mb 0.28 in7.1 mm 0.08 in2.0 mm 0.37 in9.4 mm
05:00 PM 33.9°F1.1°C 32.9°F0.5°C 96% 1.0 mph NNW1.6 kmh NNW 3.0 mph4.8 kmh 29.80 in1009.1 mb 0.21 in5.3 mm 0.00 in0.0 mm 0.37 in9.4 mm
05:15 PM 34.0°F1.1°C 33.0°F0.6°C 96% 2.0 mph NNE3.2 kmh NNE 3.0 mph4.8 kmh 29.80 in1009.1 mb 0.22 in5.6 mm 0.04 in1.0 mm 0.38 in9.7 mm
05:30 PM 34.0°F1.1°C 33.0°F0.6°C 96% 2.0 mph N3.2 kmh N 4.0 mph6.4 kmh 29.81 in1009.5 mb 0.09 in2.3 mm 0.00 in0.0 mm 0.38 in9.7 mm
05:45 PM 34.2°F1.2°C 33.2°F0.7°C 96% 4.0 mph ENE6.4 kmh ENE 6.1 mph9.8 kmh 29.80 in1009.1 mb 0.12 in3.0 mm 0.12 in3.0 mm 0.41 in10.4 mm
06:00 PM 34.5°F1.4°C 33.5°F0.8°C 96% 3.0 mph N4.8 kmh N 4.0 mph6.4 kmh 29.79 in1008.8 mb 0.08 in2.0 mm 0.00 in0.0 mm 0.41 in10.4 mm
06:15 PM 34.6°F1.4°C 33.6°F0.9°C 96% Calm Calm 1.0 mph1.6 kmh 29.79 in1008.8 mb 0.08 in2.0 mm 0.00 in0.0 mm 0.41 in10.4 mm
06:30 PM 34.7°F1.5°C 33.7°F0.9°C 96% 1.0 mph NNW1.6 kmh NNW 2.0 mph3.2 kmh 29.79 in1008.8 mb 0.04 in1.0 mm 0.00 in0.0 mm 0.41 in10.4 mm
06:45 PM 34.7°F1.5°C 33.7°F0.9°C 96% Calm Calm 3.0 mph4.8 kmh 29.79 in1008.8 mb 0.04 in1.0 mm 0.00 in0.0 mm 0.41 in10.4 mm
07:00 PM 34.7°F1.5°C 33.7°F0.9°C 96% Calm Calm -- 29.78 in1008.5 mb 0.00 in0.0 mm 0.00 in0.0 mm 0.41 in10.4 mm
07:15 PM 34.7°F1.5°C 33.7°F0.9°C 96% Calm Calm -- 29.79 in1008.8 mb 0.00 in0.0 mm 0.00 in0.0 mm 0.41 in10.4 mm
07:30 PM 34.7°F1.5°C 33.7°F0.9°C 96% Calm Calm -- 29.79 in1008.8 mb 0.00 in0.0 mm 0.00 in0.0 mm 0.41 in10.4 mm
07:45 PM 34.4°F1.3°C 33.4°F0.8°C 96% 1.0 mph SW1.6 kmh SW 2.0 mph3.2 kmh 29.79 in1008.8 mb 0.00 in0.0 mm 0.00 in0.0 mm 0.41 in10.4 mm
08:00 PM 34.2°F1.2°C 33.2°F0.7°C 96% 1.0 mph S1.6 kmh S 3.0 mph4.8 kmh 29.79 in1008.8 mb 0.00 in0.0 mm 0.00 in0.0 mm 0.41 in10.4 mm
08:15 PM 34.0°F1.1°C 33.0°F0.6°C 96% Calm Calm 2.0 mph3.2 kmh 29.79 in1008.8 mb 0.00 in0.0 mm 0.00 in0.0 mm 0.41 in10.4 mm
08:30 PM 33.8°F1.0°C 32.8°F0.4°C 96% 1.0 mph W1.6 kmh W 4.0 mph6.4 kmh 29.80 in1009.1 mb 0.00 in0.0 mm 0.00 in0.0 mm 0.41 in10.4 mm
08:45 PM 33.9°F1.1°C 32.9°F0.5°C 96% 1.0 mph W1.6 kmh W 3.0 mph4.8 kmh 29.80 in1009.1 mb 0.01 in0.3 mm 0.04 in1.0 mm 0.42 in10.7 mm
09:00 PM 34.0°F1.1°C 33.2°F0.7°C 97% 2.0 mph WSW3.2 kmh WSW 4.0 mph6.4 kmh 29.81 in1009.5 mb 0.01 in0.3 mm 0.00 in0.0 mm 0.42 in10.7 mm
09:15 PM 34.1°F1.2°C 33.1°F0.6°C 96% 5.0 mph SW8.0 kmh SW 5.1 mph8.2 kmh 29.81 in1009.5 mb 0.01 in0.3 mm 0.00 in0.0 mm 0.42 in10.7 mm
09:30 PM 34.2°F1.2°C 33.4°F0.8°C 97% 1.0 mph WSW1.6 kmh WSW 3.0 mph4.8 kmh 29.81 in1009.5 mb 0.01 in0.3 mm 0.00 in0.0 mm 0.42 in10.7 mm
09:45 PM 34.3°F1.3°C 33.5°F0.8°C 97% 3.0 mph SW4.8 kmh SW 5.1 mph8.2 kmh 29.82 in1009.8 mb 0.01 in0.3 mm 0.00 in0.0 mm 0.42 in10.7 mm
10:00 PM 34.3°F1.3°C 33.5°F0.8°C 97% 1.0 mph W1.6 kmh W 3.0 mph4.8 kmh 29.82 in1009.8 mb 0.00 in0.0 mm 0.00 in0.0 mm 0.42 in10.7 mm
10:15 PM 34.2°F1.2°C 33.4°F0.8°C 97% 3.0 mph W4.8 kmh W 3.0 mph4.8 kmh 29.83 in1010.2 mb 0.00 in0.0 mm 0.00 in0.0 mm 0.42 in10.7 mm
10:30 PM 34.3°F1.3°C 33.5°F0.8°C 97% 4.0 mph WSW6.4 kmh WSW 4.0 mph6.4 kmh 29.83 in1010.2 mb 0.00 in0.0 mm 0.00 in0.0 mm 0.42 in10.7 mm
10:45 PM 34.4°F1.3°C 33.6°F0.9°C 97% 2.0 mph WSW3.2 kmh WSW 5.1 mph8.2 kmh 29.83 in1010.2 mb 0.00 in0.0 mm 0.00 in0.0 mm 0.42 in10.7 mm
11:00 PM 34.5°F1.4°C 33.7°F0.9°C 97% 3.0 mph S4.8 kmh S 7.1 mph11.4 kmh 29.84 in1010.5 mb 0.00 in0.0 mm 0.00 in0.0 mm 0.42 in10.7 mm
11:15 PM 34.5°F1.4°C 33.7°F0.9°C 97% 3.0 mph WSW4.8 kmh WSW 8.1 mph13.0 kmh 29.83 in1010.2 mb 0.00 in0.0 mm 0.00 in0.0 mm 0.42 in10.7 mm
11:30 PM 34.5°F1.4°C 33.7°F0.9°C 97% 5.0 mph SW8.0 kmh SW 6.1 mph9.8 kmh 29.83 in1010.2 mb 0.00 in0.0 mm 0.00 in0.0 mm 0.42 in10.7 mm
11:45 PM 34.5°F1.4°C 33.7°F0.9°C 97% 2.0 mph WSW3.2 kmh WSW 8.1 mph13.0 kmh 29.82 in1009.8 mb 0.00 in0.0 mm 0.00 in0.0 mm 0.42 in10.7 mm